石垣島の過去48時間の天気

石垣島 (Ishigaki jima)

現在時刻: 2/22 00:48 JST (2/21 15:48 UTC) 以下の時間は現地時間です。

過去48時間のMETAR気象情報
時間 風向 風速(m/s) 視程 気温(℃) 湿度(%) 気圧(hPa) 天気現象
21 20:00 東南東 3 10km以上 22 78 1026
21 19:00 4 10km以上 22 78 1025
21 18:00 東南東 4 10km以上 22 73 1025
21 17:00 東南東 5 10km以上 23 69 1025
21 16:00 東南東 5 10km以上 23 65 1025
21 15:00 東南東 6 10km以上 24 65 1025
21 14:00 東南東 6 10km以上 25 61 1026
21 13:00 東南東 6 10km以上 24 57 1027
21 12:00 6 10km以上 24 61 1027
21 11:00 7 10km以上 23 61 1028
21 10:00 7 10km以上 23 61 1028
21 09:00 7 10km以上 22 65 1028
21 08:00 7 10km以上 21 69 1027
21 07:00 7 10km以上 21 64 1027
21 06:00 6 10km以上 20 68 1026
ROIG 211100Z 11005KT 9999 FEW023 22/18 Q1026
ROIG 211000Z 10008KT 9999 FEW023 22/18 Q1025
ROIG 210900Z 11008KT 080V140 9999 FEW024 22/17 Q1025
ROIG 210800Z 11010KT 9999 FEW025 23/17 Q1025
ROIG 210700Z 11010KT 080V150 9999 FEW027 23/16 Q1025
ROIG 210600Z 11011KT 9999 FEW029 24/17 Q1025
ROIG 210500Z 11011KT 9999 FEW030 25/17 Q1026
ROIG 210400Z 11012KT 9999 FEW029 24/15 Q1027
ROIG 210300Z 10012KT 9999 FEW030 24/16 Q1027
ROIG 210200Z 10014KT 9999 FEW031 23/15 Q1028
ROIG 210100Z 10013KT 9999 FEW030 23/15 Q1028
ROIG 210000Z 10013KT 9999 FEW032 22/15 Q1028
ROIG 202300Z 09013KT 9999 FEW032 21/15 Q1027
ROIG 202200Z 10014KT 9999 SCT032 21/14 Q1027
ROIG 202100Z 08012KT 9999 SCT035 20/14 Q1026